createdAt,value
2018-03-04T00:00:37.199Z,177.37
2018-03-04T00:03:06.378Z,186.13
2018-03-04T00:05:35.519Z,172.63
2018-03-04T00:08:04.676Z,186.53
2018-03-04T00:10:33.851Z,181.70
2018-03-04T00:13:03.034Z,174.90
2018-03-04T00:15:32.173Z,174.87
2018-03-04T00:18:01.322Z,174.20
2018-03-04T00:20:30.495Z,175.77
2018-03-04T00:22:59.636Z,183.37
2018-03-04T00:25:28.817Z,182.87
2018-03-04T00:27:57.982Z,191.33
2018-03-04T00:30:27.127Z,187.77
2018-03-04T00:32:56.290Z,178.77
2018-03-04T00:35:25.481Z,193.93
2018-03-04T00:37:54.695Z,168.20
2018-03-04T00:40:23.838Z,174.33
2018-03-04T00:42:53.390Z,181.53
2018-03-04T00:45:22.526Z,171.80
2018-03-04T00:47:51.664Z,175.70
2018-03-04T00:50:21.075Z,179.73
2018-03-04T00:52:50.221Z,170.67
2018-03-04T00:55:19.361Z,180.63
2018-03-04T00:57:48.522Z,166.53
2018-03-04T01:00:17.683Z,176.93
2018-03-04T01:02:46.919Z,178.40
2018-03-04T01:05:16.117Z,162.80
2018-03-04T01:07:45.286Z,164.47
2018-03-04T01:10:14.426Z,170.93
2018-03-04T01:12:43.569Z,168.87
2018-03-04T01:15:12.746Z,156.87
2018-03-04T01:17:41.892Z,158.60
2018-03-04T01:20:11.071Z,162.50
2018-03-04T01:22:40.217Z,168.77
2018-03-04T01:25:09.362Z,180.13
2018-03-04T01:27:38.553Z,172.50
2018-03-04T01:30:07.701Z,170.90
2018-03-04T01:32:36.955Z,161.43
2018-03-04T01:35:06.136Z,179.77
2018-03-04T01:37:35.283Z,165.13
2018-03-04T01:40:04.433Z,161.40
2018-03-04T01:42:33.614Z,169.50
2018-03-04T01:45:02.802Z,173.80
2018-03-04T01:47:31.938Z,173.10
2018-03-04T01:50:01.124Z,172.07
2018-03-04T01:52:30.330Z,157.77
2018-03-04T01:54:59.561Z,162.70
2018-03-04T01:57:28.713Z,163.53
2018-03-04T01:59:57.854Z,163.83
2018-03-04T02:02:27.013Z,169.00
2018-03-04T02:04:56.165Z,154.37
2018-03-04T02:07:25.322Z,160.30
2018-03-04T02:09:54.491Z,154.47
2018-03-04T02:12:23.635Z,169.00
2018-03-04T02:14:52.791Z,164.80
2018-03-04T02:17:21.954Z,164.40
2018-03-04T02:19:51.093Z,147.27
2018-03-04T02:22:20.238Z,161.03
2018-03-04T02:24:49.402Z,169.23
2018-03-04T02:27:18.543Z,158.00
2018-03-04T02:29:47.693Z,160.30
2018-03-04T02:32:16.879Z,163.63
2018-03-04T02:34:46.022Z,173.07
2018-03-04T02:37:15.154Z,159.80
2018-03-04T02:39:44.326Z,154.90
2018-03-04T02:42:13.466Z,175.67
2018-03-04T02:44:42.613Z,166.70
2018-03-04T02:47:11.806Z,160.20
2018-03-04T02:49:40.945Z,157.60
2018-03-04T02:52:10.095Z,161.13
2018-03-04T02:54:39.270Z,144.30
2018-03-04T02:57:08.420Z,156.17
2018-03-04T02:59:37.612Z,151.47
2018-03-04T03:02:06.750Z,148.73
2018-03-04T03:04:35.889Z,146.83
2018-03-04T03:07:05.054Z,148.57
2018-03-04T03:09:34.201Z,150.77
2018-03-04T03:12:03.349Z,142.67
2018-03-04T03:14:32.510Z,148.40
2018-03-04T03:17:01.657Z,148.80
2018-03-04T03:19:30.821Z,161.20
2018-03-04T03:22:00.021Z,148.67
2018-03-04T03:24:29.158Z,155.57
2018-03-04T03:26:58.314Z,147.37
2018-03-04T03:29:27.504Z,155.23
2018-03-04T03:31:56.663Z,163.60
2018-03-04T03:34:25.816Z,160.07
2018-03-04T03:36:54.985Z,142.07
2018-03-04T03:39:24.159Z,136.07
2018-03-04T03:41:53.333Z,129.37
2018-03-04T03:44:22.466Z,124.00
2018-03-04T03:46:51.637Z,122.23
2018-03-04T03:49:20.776Z,124.73
2018-03-04T03:51:49.956Z,113.27
2018-03-04T03:54:19.093Z,109.77
2018-03-04T03:56:48.236Z,107.50
2018-03-04T03:59:17.602Z,113.43
2018-03-04T04:01:46.744Z,111.07
2018-03-04T04:04:15.877Z,107.30
2018-03-04T04:06:45.059Z,103.17
2018-03-04T04:09:14.235Z,124.70
2018-03-04T04:11:43.378Z,115.37
2018-03-04T04:14:12.573Z,115.73
2018-03-04T04:16:41.721Z,108.27
2018-03-04T04:19:10.898Z,115.03
2018-03-04T04:21:40.078Z,106.70
2018-03-04T04:24:09.225Z,163.93
2018-03-04T04:26:38.400Z,106.13
2018-03-04T04:29:07.538Z,129.87
2018-03-04T04:31:36.677Z,130.47
2018-03-04T04:34:05.837Z,125.47
2018-03-04T04:36:34.979Z,124.13
2018-03-04T04:39:04.156Z,112.50
2018-03-04T04:41:33.290Z,116.97
2018-03-04T04:44:02.433Z,112.77
2018-03-04T04:46:31.599Z,123.17
2018-03-04T04:49:00.742Z,124.20
2018-03-04T04:51:29.897Z,114.30
2018-03-04T04:53:59.079Z,119.10
2018-03-04T04:56:28.219Z,105.90
2018-03-04T04:58:57.362Z,112.50
2018-03-04T05:01:26.807Z,147.93
2018-03-04T05:03:55.951Z,163.87
2018-03-04T05:06:25.097Z,117.10
2018-03-04T05:08:54.770Z,119.60
2018-03-04T05:11:23.909Z,108.90
2018-03-04T05:13:53.120Z,135.90
2018-03-04T05:16:22.305Z,111.60
2018-03-04T05:18:51.458Z,102.50
2018-03-04T05:21:20.627Z,128.30
2018-03-04T05:23:49.791Z,101.37
2018-03-04T05:26:18.935Z,102.67
2018-03-04T05:28:48.077Z,107.50
2018-03-04T05:31:17.227Z,110.40
2018-03-04T05:33:46.381Z,106.40
2018-03-04T05:36:15.570Z,101.60
2018-03-04T05:38:44.720Z,101.30
2018-03-04T05:41:13.862Z,101.97
2018-03-04T05:43:43.059Z,97.97
2018-03-04T05:46:12.214Z,97.00
2018-03-04T05:48:41.345Z,98.87
2018-03-04T05:51:10.518Z,101.20
2018-03-04T05:53:39.671Z,100.90
2018-03-04T05:56:08.823Z,98.23
2018-03-04T05:58:38.881Z,108.90
2018-03-04T06:01:08.036Z,101.93
2018-03-04T06:03:37.212Z,95.50
2018-03-04T06:06:06.377Z,98.33
2018-03-04T06:08:35.523Z,104.73
2018-03-04T06:11:04.674Z,100.07
2018-03-04T06:13:33.848Z,103.00
2018-03-04T06:16:02.988Z,118.97
2018-03-04T06:18:32.136Z,95.10
2018-03-04T06:21:01.304Z,98.53
2018-03-04T06:23:30.459Z,97.63
2018-03-04T06:25:59.654Z,100.87
2018-03-04T06:28:28.793Z,93.20
2018-03-04T06:30:57.944Z,118.37
2018-03-04T06:33:27.181Z,93.40
2018-03-04T06:35:56.285Z,99.70
2018-03-04T06:38:25.426Z,96.03
2018-03-04T06:40:54.590Z,94.67
2018-03-04T06:43:23.754Z,94.60
2018-03-04T06:45:52.897Z,99.37
2018-03-04T06:48:22.030Z,93.17
2018-03-04T06:50:51.248Z,90.90
2018-03-04T06:53:20.390Z,92.60
2018-03-04T06:55:49.530Z,122.23
2018-03-04T06:58:18.695Z,105.50
2018-03-04T07:00:47.827Z,94.70
2018-03-04T07:03:16.978Z,91.97
2018-03-04T07:05:46.155Z,92.40
2018-03-04T07:08:15.297Z,98.77
2018-03-04T07:10:44.445Z,92.37
2018-03-04T07:13:13.619Z,91.27
2018-03-04T07:15:43.002Z,97.30
2018-03-04T07:18:12.190Z,95.50
2018-03-04T07:20:41.330Z,92.10
2018-03-04T07:23:10.477Z,106.93
2018-03-04T07:25:39.635Z,97.97
2018-03-04T07:28:08.773Z,92.90
2018-03-04T07:30:37.905Z,88.13
2018-03-04T07:33:07.310Z,97.87
2018-03-04T07:35:36.452Z,89.80
2018-03-04T07:38:05.596Z,86.60
2018-03-04T07:40:34.761Z,86.30
2018-03-04T07:43:03.895Z,102.73
2018-03-04T07:45:33.036Z,86.30
2018-03-04T07:48:02.204Z,86.23
2018-03-04T07:50:31.370Z,87.43
2018-03-04T07:53:00.506Z,83.90
2018-03-04T07:55:29.681Z,83.10
2018-03-04T07:57:58.837Z,82.90
2018-03-04T08:00:28.026Z,84.83
2018-03-04T08:02:57.191Z,91.63
2018-03-04T08:05:26.345Z,86.27
2018-03-04T08:07:55.518Z,83.03
2018-03-04T08:10:24.646Z,85.60
2018-03-04T08:12:53.786Z,85.10
2018-03-04T08:15:22.957Z,82.93
2018-03-04T08:17:52.087Z,83.67
2018-03-04T08:20:21.228Z,83.53
2018-03-04T08:22:50.409Z,85.50
2018-03-04T08:25:25.465Z,82.57
2018-03-04T08:28:00.515Z,86.40
2018-03-04T08:30:29.650Z,85.57
2018-03-04T08:32:58.801Z,89.20
2018-03-04T08:35:27.998Z,83.57
2018-03-04T08:37:57.137Z,84.60
2018-03-04T08:40:26.528Z,83.23
2018-03-04T08:42:55.666Z,84.27
2018-03-04T08:45:24.834Z,84.43
2018-03-04T08:47:53.981Z,85.33
2018-03-04T08:50:23.127Z,85.63
2018-03-04T08:52:52.306Z,87.60
2018-03-04T08:55:21.481Z,86.97
2018-03-04T08:57:50.631Z,84.90
2018-03-04T09:00:19.801Z,85.57
2018-03-04T09:02:48.963Z,105.53
2018-03-04T09:05:18.111Z,88.20
2018-03-04T09:07:47.246Z,88.70
2018-03-04T09:10:16.413Z,87.43
2018-03-04T09:12:45.590Z,89.00
2018-03-04T09:15:14.729Z,92.30
2018-03-04T09:17:43.871Z,89.10
2018-03-04T09:20:13.042Z,92.47
2018-03-04T09:22:42.184Z,90.60
2018-03-04T09:25:11.339Z,89.83
2018-03-04T09:27:40.594Z,89.97
2018-03-04T09:30:09.734Z,92.03
2018-03-04T09:32:38.869Z,93.80
2018-03-04T09:35:08.049Z,94.00
2018-03-04T09:37:37.192Z,94.27
2018-03-04T09:40:06.329Z,94.70
2018-03-04T09:42:35.737Z,93.80
2018-03-04T09:45:04.880Z,109.13
2018-03-04T09:47:34.037Z,98.50
2018-03-04T09:50:03.291Z,94.27
2018-03-04T09:52:32.440Z,96.00
2018-03-04T09:55:01.574Z,92.30
2018-03-04T09:57:30.818Z,115.97
2018-03-04T10:00:00.135Z,139.63
2018-03-04T10:02:29.278Z,97.17
2018-03-04T10:04:58.448Z,104.77
2018-03-04T10:07:27.670Z,94.93
2018-03-04T10:09:56.809Z,95.17
2018-03-04T10:12:26.018Z,99.83
2018-03-04T10:14:55.208Z,91.67
2018-03-04T10:17:24.350Z,102.37
2018-03-04T10:19:53.539Z,90.07
2018-03-04T10:22:22.701Z,97.90
2018-03-04T10:24:51.841Z,89.30
2018-03-04T10:27:20.984Z,137.57
2018-03-04T10:29:50.275Z,109.50
2018-03-04T10:32:19.434Z,90.97
2018-03-04T10:34:48.582Z,92.37
2018-03-04T10:37:17.746Z,91.50
2018-03-04T10:39:46.888Z,95.53
2018-03-04T10:42:16.049Z,91.53
2018-03-04T10:44:45.282Z,94.27
2018-03-04T10:47:14.425Z,92.17
2018-03-04T10:49:43.565Z,93.37
2018-03-04T10:52:12.751Z,95.00
2018-03-04T10:54:41.906Z,92.17
2018-03-04T10:57:11.053Z,97.10
2018-03-04T10:59:40.224Z,97.00
2018-03-04T11:02:15.056Z,109.90
2018-03-04T11:04:44.238Z,122.57
2018-03-04T11:07:13.386Z,90.17
2018-03-04T11:09:42.538Z,126.43
2018-03-04T11:12:11.717Z,88.27
2018-03-04T11:14:40.847Z,101.53
2018-03-04T11:17:10.015Z,104.13
2018-03-04T11:19:39.174Z,99.73
2018-03-04T11:22:08.314Z,95.40
2018-03-04T11:24:37.470Z,94.17
2018-03-04T11:27:06.649Z,94.60
2018-03-04T11:29:35.789Z,91.80
2018-03-04T11:32:04.920Z,95.27
2018-03-04T11:34:34.162Z,94.80
2018-03-04T11:37:03.335Z,103.57
2018-03-04T11:39:32.466Z,93.57
2018-03-04T11:42:01.626Z,95.20
2018-03-04T11:44:30.775Z,97.47
2018-03-04T11:46:59.991Z,98.23
2018-03-04T11:49:29.769Z,95.20
2018-03-04T11:51:58.918Z,101.57
2018-03-04T11:54:28.055Z,97.47
2018-03-04T11:56:57.227Z,112.37
2018-03-04T11:59:26.366Z,155.13
2018-03-04T12:01:55.542Z,125.40
2018-03-04T12:04:24.682Z,120.27
2018-03-04T12:06:53.823Z,103.30
2018-03-04T12:09:23.034Z,148.17
2018-03-04T12:11:52.160Z,99.93
2018-03-04T12:14:21.329Z,106.37
2018-03-04T12:16:50.494Z,96.17
2018-03-04T12:19:19.734Z,116.30
2018-03-04T12:21:48.853Z,108.90
2018-03-04T12:24:18.030Z,104.03
2018-03-04T12:26:47.178Z,115.70
2018-03-04T12:29:16.328Z,102.07
2018-03-04T12:31:45.480Z,124.17
2018-03-04T12:34:14.623Z,104.83
2018-03-04T12:36:43.874Z,102.93
2018-03-04T12:39:13.368Z,109.77
2018-03-04T12:41:42.533Z,100.70
2018-03-04T12:44:11.688Z,122.43
2018-03-04T12:46:40.871Z,107.07
2018-03-04T12:49:10.010Z,97.23
2018-03-04T12:51:39.167Z,114.23
2018-03-04T12:54:08.442Z,107.00
2018-03-04T12:56:37.613Z,109.47
2018-03-04T12:59:06.790Z,96.27
2018-03-04T13:01:35.949Z,100.47
2018-03-04T13:04:05.139Z,102.00
2018-03-04T13:06:34.277Z,98.40
2018-03-04T13:09:03.421Z,124.40
2018-03-04T13:11:33.354Z,105.40
2018-03-04T13:14:02.520Z,193.93
2018-03-04T13:16:31.664Z,102.23
2018-03-04T13:19:00.832Z,102.10
2018-03-04T13:21:30.010Z,127.40
2018-03-04T13:23:59.223Z,112.53
2018-03-04T13:26:28.386Z,112.10
2018-03-04T13:28:57.531Z,108.17
2018-03-04T13:31:26.665Z,113.53
2018-03-04T13:33:55.829Z,123.63
2018-03-04T13:36:25.004Z,110.07
2018-03-04T13:38:54.139Z,157.30
2018-03-04T13:41:23.820Z,138.00
2018-03-04T13:43:53.129Z,102.27
2018-03-04T13:46:22.284Z,97.70
2018-03-04T13:48:51.434Z,103.67
2018-03-04T13:51:20.607Z,105.67
2018-03-04T13:53:49.748Z,110.10
2018-03-04T13:56:18.894Z,124.13
2018-03-04T13:58:48.076Z,113.63
2018-03-04T14:01:17.218Z,131.03
2018-03-04T14:03:46.369Z,115.57
2018-03-04T14:06:15.534Z,107.07
2018-03-04T14:08:44.674Z,101.70
2018-03-04T14:11:13.806Z,115.67
2018-03-04T14:13:43.058Z,104.13
2018-03-04T14:16:12.215Z,102.13
2018-03-04T14:18:41.395Z,101.60
2018-03-04T14:21:10.536Z,93.70
2018-03-04T14:23:39.692Z,94.40
2018-03-04T14:26:08.838Z,98.80
2018-03-04T14:28:37.979Z,99.47
2018-03-04T14:31:07.142Z,99.53
2018-03-04T14:33:36.277Z,96.90
2018-03-04T14:36:05.411Z,108.33
2018-03-04T14:38:34.596Z,95.40
2018-03-04T14:41:03.783Z,98.53
2018-03-04T14:43:33.426Z,101.27
2018-03-04T14:46:02.634Z,98.70
2018-03-04T14:48:31.843Z,95.77
2018-03-04T14:51:01.045Z,98.73
2018-03-04T14:53:30.192Z,97.77
2018-03-04T14:55:59.394Z,97.17
2018-03-04T14:58:28.537Z,97.70
2018-03-04T15:00:57.681Z,97.87
2018-03-04T15:03:26.853Z,101.93
2018-03-04T15:05:56.026Z,96.87
2018-03-04T15:08:25.192Z,103.47
2018-03-04T15:10:54.389Z,147.70
2018-03-04T15:13:23.549Z,108.40
2018-03-04T15:15:52.689Z,102.60
2018-03-04T15:18:21.827Z,124.60
2018-03-04T15:20:50.991Z,108.77
2018-03-04T15:23:20.145Z,102.40
2018-03-04T15:25:49.307Z,107.33
2018-03-04T15:28:18.500Z,107.30
2018-03-04T15:30:47.658Z,109.33
2018-03-04T15:33:16.800Z,109.43
2018-03-04T15:35:45.965Z,109.50
2018-03-04T15:38:15.141Z,110.00
2018-03-04T15:40:44.307Z,174.00
2018-03-04T15:43:13.460Z,124.50
2018-03-04T15:45:42.665Z,115.70
2018-03-04T15:48:11.809Z,121.10
2018-03-04T15:50:40.957Z,126.23
2018-03-04T15:53:10.158Z,117.30
2018-03-04T15:55:39.361Z,118.87
2018-03-04T15:58:08.500Z,124.67
2018-03-04T16:00:37.657Z,124.03
2018-03-04T16:03:06.840Z,126.97
2018-03-04T16:05:35.997Z,116.87
2018-03-04T16:08:05.143Z,126.23
2018-03-04T16:10:34.296Z,127.17
2018-03-04T16:13:03.457Z,134.37
2018-03-04T16:15:32.631Z,133.27
2018-03-04T16:18:01.780Z,131.73
2018-03-04T16:20:31.178Z,138.87
2018-03-04T16:23:00.353Z,148.63
2018-03-04T16:25:29.491Z,134.47
2018-03-04T16:27:58.630Z,136.83
2018-03-04T16:30:27.815Z,147.00
2018-03-04T16:32:57.015Z,133.67
2018-03-04T16:35:26.164Z,139.67
2018-03-04T16:37:55.301Z,140.03
2018-03-04T16:40:24.486Z,140.37
2018-03-04T16:42:53.655Z,142.57
2018-03-04T16:45:22.834Z,142.17
2018-03-04T16:47:52.032Z,148.33
2018-03-04T16:50:21.151Z,148.87
2018-03-04T16:52:50.333Z,169.50
2018-03-04T16:55:19.494Z,189.93
2018-03-04T16:57:48.638Z,192.37
2018-03-04T17:00:17.843Z,144.90
2018-03-04T17:02:46.990Z,136.83
2018-03-04T17:05:16.214Z,151.07
2018-03-04T17:07:45.353Z,154.23
2018-03-04T17:10:14.520Z,163.23
2018-03-04T17:12:43.685Z,154.93
2018-03-04T17:15:12.825Z,149.90
2018-03-04T17:17:41.991Z,168.33
2018-03-04T17:20:11.174Z,160.83
2018-03-04T17:22:40.463Z,147.37
2018-03-04T17:25:09.634Z,167.37
2018-03-04T17:27:38.802Z,155.47
2018-03-04T17:30:07.940Z,152.87
2018-03-04T17:32:37.089Z,151.80
2018-03-04T17:35:06.264Z,147.07
2018-03-04T17:37:35.476Z,136.10
2018-03-04T17:40:04.558Z,146.53
2018-03-04T17:42:33.737Z,137.77
2018-03-04T17:45:02.878Z,171.37
2018-03-04T17:47:32.080Z,167.43
2018-03-04T17:50:01.262Z,131.70
2018-03-04T17:52:30.420Z,130.03
2018-03-04T17:54:59.558Z,135.43
2018-03-04T17:57:28.737Z,131.13
2018-03-04T17:59:57.874Z,139.03
2018-03-04T18:02:27.014Z,132.17
2018-03-04T18:04:56.193Z,137.80
2018-03-04T18:07:25.341Z,235.53
2018-03-04T18:09:54.488Z,131.93
2018-03-04T18:12:23.749Z,134.60
2018-03-04T18:14:52.878Z,157.20
2018-03-04T18:17:22.010Z,130.30
2018-03-04T18:19:51.185Z,163.60
2018-03-04T18:22:20.928Z,157.90
2018-03-04T18:24:50.077Z,141.80
2018-03-04T18:27:19.249Z,145.60
2018-03-04T18:29:48.386Z,128.97
2018-03-04T18:32:17.581Z,149.20
2018-03-04T18:34:46.746Z,146.10
2018-03-04T18:37:15.885Z,134.30
2018-03-04T18:39:45.078Z,136.93
2018-03-04T18:42:14.230Z,131.97
2018-03-04T18:44:43.373Z,134.57
2018-03-04T18:47:12.534Z,128.67
2018-03-04T18:49:41.693Z,223.27
2018-03-04T18:52:10.835Z,189.30
2018-03-04T18:54:40.034Z,124.67
2018-03-04T18:57:09.669Z,120.73
2018-03-04T18:59:38.854Z,327.20
2018-03-04T19:02:08.013Z,158.30
2018-03-04T19:04:37.156Z,143.60
2018-03-04T19:07:06.325Z,125.97
2018-03-04T19:09:35.471Z,126.83
2018-03-04T19:12:04.647Z,147.83
2018-03-04T19:14:33.867Z,182.90
2018-03-04T19:17:03.016Z,145.90
2018-03-04T19:19:32.163Z,125.33
2018-03-04T19:22:01.351Z,124.27
2018-03-04T19:24:30.507Z,171.60
2018-03-04T19:26:59.813Z,124.90
2018-03-04T19:29:29.002Z,127.03
2018-03-04T19:31:58.184Z,123.93
2018-03-04T19:34:27.363Z,132.90
2018-03-04T19:36:56.549Z,128.63
2018-03-04T19:39:25.704Z,128.80
2018-03-04T19:41:54.900Z,130.37
2018-03-04T19:44:24.076Z,135.70
2018-03-04T19:46:53.266Z,138.57
2018-03-04T19:49:22.417Z,127.07
2018-03-04T19:51:51.568Z,178.63
2018-03-04T19:54:20.717Z,151.80
2018-03-04T19:56:49.886Z,163.30
2018-03-04T19:59:19.510Z,155.57
2018-03-04T20:01:48.671Z,154.43
2018-03-04T20:04:17.851Z,127.63
2018-03-04T20:06:46.998Z,129.17
2018-03-04T20:09:16.159Z,132.17
2018-03-04T20:11:45.350Z,151.87
2018-03-04T20:14:14.510Z,136.67
2018-03-04T20:16:43.647Z,138.90
2018-03-04T20:19:12.869Z,135.53
2018-03-04T20:21:42.025Z,136.97
2018-03-04T20:24:11.193Z,136.47
2018-03-04T20:26:40.372Z,135.73
2018-03-04T20:29:09.545Z,179.37
2018-03-04T20:31:38.686Z,140.40
2018-03-04T20:34:07.861Z,137.17
2018-03-04T20:36:37.052Z,132.63
2018-03-04T20:39:06.229Z,153.03
2018-03-04T20:41:35.400Z,146.50
2018-03-04T20:44:04.552Z,149.17
2018-03-04T20:46:33.685Z,142.10
2018-03-04T20:49:02.867Z,141.30
2018-03-04T20:51:32.026Z,139.40
2018-03-04T20:54:01.449Z,135.73
2018-03-04T20:56:30.618Z,142.43
2018-03-04T20:58:59.765Z,142.87
2018-03-04T21:01:29.418Z,145.43
2018-03-04T21:03:58.597Z,138.17
2018-03-04T21:06:27.756Z,150.57
2018-03-04T21:08:56.915Z,145.73
2018-03-04T21:11:26.084Z,144.40
2018-03-04T21:13:55.234Z,141.50
2018-03-04T21:16:24.444Z,138.87
2018-03-04T21:18:53.605Z,142.33
2018-03-04T21:21:22.761Z,144.77
2018-03-04T21:23:51.908Z,148.47
2018-03-04T21:26:21.120Z,139.77
2018-03-04T21:28:50.288Z,146.33
2018-03-04T21:31:19.423Z,142.40
2018-03-04T21:33:48.613Z,145.90
2018-03-04T21:36:17.782Z,142.23
2018-03-04T21:38:46.951Z,144.77
2018-03-04T21:41:16.131Z,150.80
2018-03-04T21:43:45.285Z,146.57
2018-03-04T21:46:14.423Z,145.20
2018-03-04T21:48:43.592Z,153.70
2018-03-04T21:51:12.740Z,143.13
2018-03-04T21:53:41.892Z,149.63
2018-03-04T21:56:11.064Z,152.70
2018-03-04T21:58:40.198Z,148.83
2018-03-04T22:01:09.397Z,149.93
2018-03-04T22:03:38.581Z,146.83
2018-03-04T22:06:07.725Z,144.60
2018-03-04T22:08:36.898Z,142.67
2018-03-04T22:11:06.073Z,144.70
2018-03-04T22:13:35.219Z,148.63
2018-03-04T22:16:04.429Z,151.43
2018-03-04T22:18:33.593Z,152.50
2018-03-04T22:21:02.742Z,148.57
2018-03-04T22:23:31.931Z,151.50
2018-03-04T22:26:01.503Z,152.77
2018-03-04T22:28:30.652Z,156.27
2018-03-04T22:30:59.918Z,159.17
2018-03-04T22:33:29.049Z,154.37
2018-03-04T22:35:58.208Z,162.90
2018-03-04T22:38:27.382Z,160.40
2018-03-04T22:40:56.556Z,153.33
2018-03-04T22:43:25.698Z,156.03
2018-03-04T22:45:54.864Z,158.63
2018-03-04T22:48:24.043Z,146.47
2018-03-04T22:50:53.203Z,150.90
2018-03-04T22:53:22.342Z,152.17
2018-03-04T22:55:51.508Z,152.00
2018-03-04T22:58:20.658Z,158.17
2018-03-04T23:00:49.807Z,162.37
2018-03-04T23:03:18.981Z,151.63
2018-03-04T23:05:48.171Z,154.03
2018-03-04T23:08:17.367Z,152.03
2018-03-04T23:10:46.520Z,367.23
2018-03-04T23:13:15.678Z,191.90
2018-03-04T23:15:44.847Z,152.90
2018-03-04T23:18:14.004Z,152.30
2018-03-04T23:20:43.150Z,149.23
2018-03-04T23:23:12.336Z,153.50
2018-03-04T23:25:41.477Z,156.97
2018-03-04T23:28:10.642Z,154.87
2018-03-04T23:30:39.828Z,152.73
2018-03-04T23:33:08.990Z,159.87
2018-03-04T23:35:38.148Z,155.03
2018-03-04T23:38:07.323Z,152.37
2018-03-04T23:40:36.481Z,152.97
2018-03-04T23:43:05.677Z,151.57
2018-03-04T23:45:34.843Z,152.97
2018-03-04T23:48:03.990Z,154.67
2018-03-04T23:50:33.158Z,152.30
2018-03-04T23:53:02.348Z,158.07
2018-03-04T23:55:31.483Z,150.37
2018-03-04T23:58:00.657Z,149.07
